createdAt,value
2022-12-13T00:04:54.675Z,10.25
2022-12-13T00:12:30.283Z,12.65
2022-12-13T00:20:04.786Z,12.20
2022-12-13T00:27:40.046Z,12.10
2022-12-13T00:35:14.467Z,12.38
2022-12-13T00:42:50.019Z,12.85
2022-12-13T00:50:24.140Z,13.55
2022-12-13T00:57:59.576Z,12.55
2022-12-13T01:06:13.190Z,13.05
2022-12-13T01:13:32.921Z,13.02
2022-12-13T01:21:08.880Z,11.63
2022-12-13T01:28:44.547Z,12.27
2022-12-13T01:36:27.536Z,11.18
2022-12-13T01:44:05.745Z,11.85
2022-12-13T01:51:45.315Z,11.50
2022-12-13T01:59:23.036Z,11.32
2022-12-13T02:06:58.629Z,11.65
2022-12-13T02:14:37.891Z,11.65
2022-12-13T02:22:31.186Z,12.77
2022-12-13T02:30:22.412Z,13.00
2022-12-13T02:38:03.666Z,10.98
2022-12-13T02:45:46.152Z,11.30
2022-12-13T02:53:22.095Z,11.43
2022-12-13T03:01:28.592Z,10.57
2022-12-13T03:09:25.096Z,11.07
2022-12-13T03:17:03.544Z,10.40
2022-12-13T03:24:37.628Z,10.43
2022-12-13T03:32:12.908Z,10.75
2022-12-13T03:39:46.763Z,11.07
2022-12-13T03:54:55.678Z,11.82
2022-12-13T04:02:31.727Z,9.43
2022-12-13T04:10:26.395Z,10.82
2022-12-13T04:18:02.188Z,10.07
2022-12-13T04:25:36.500Z,10.43
2022-12-13T04:33:11.699Z,9.07
2022-12-13T04:40:45.754Z,9.93
2022-12-13T04:48:31.085Z,9.68
2022-12-13T04:56:06.942Z,9.00
2022-12-13T05:03:42.143Z,11.00
2022-12-13T05:11:17.127Z,8.65
2022-12-13T05:18:58.222Z,8.77
2022-12-13T05:26:32.000Z,8.73
2022-12-13T05:34:07.209Z,9.40
2022-12-13T05:41:40.995Z,9.05
2022-12-13T05:49:16.402Z,10.25
2022-12-13T05:56:50.377Z,10.18
2022-12-13T06:12:00.884Z,9.63
2022-12-13T06:19:36.750Z,10.52
2022-12-13T06:27:10.819Z,10.00
2022-12-13T06:34:46.063Z,11.02
2022-12-13T06:42:21.508Z,10.95
2022-12-13T06:49:58.030Z,11.20
2022-12-13T06:57:40.693Z,12.00
2022-12-13T07:05:16.687Z,12.15
2022-12-13T07:12:50.829Z,11.43
2022-12-13T07:20:26.276Z,12.05
2022-12-13T07:28:03.123Z,11.35
2022-12-13T07:35:38.455Z,12.10
2022-12-13T07:43:16.094Z,11.57
2022-12-13T07:50:54.464Z,10.85
2022-12-13T07:58:30.019Z,12.20
2022-12-13T08:06:07.865Z,12.93
2022-12-13T08:13:43.197Z,11.50
2022-12-13T08:21:52.814Z,10.00
2022-12-13T08:29:22.307Z,10.52
2022-12-13T08:37:02.016Z,10.88
2022-12-13T08:44:37.124Z,10.80
2022-12-13T08:52:12.371Z,10.75
2022-12-13T08:59:46.512Z,10.00
2022-12-13T09:07:21.706Z,9.88
2022-12-13T09:15:01.241Z,10.07
2022-12-13T09:22:45.039Z,10.82
2022-12-13T09:30:19.642Z,10.80
2022-12-13T09:37:56.298Z,11.57
2022-12-13T09:45:32.376Z,9.05
2022-12-13T09:53:11.707Z,10.25
2022-12-13T10:00:48.776Z,9.77
2022-12-13T10:08:27.191Z,9.52
2022-12-13T10:16:07.925Z,9.38
2022-12-13T10:24:22.863Z,9.02
2022-12-13T10:31:43.081Z,7.65
2022-12-13T10:39:21.053Z,9.65
2022-12-13T10:47:05.836Z,10.65
2022-12-13T10:54:48.311Z,8.25
2022-12-13T11:02:32.045Z,7.82
2022-12-13T11:10:27.162Z,7.53
2022-12-13T11:18:03.572Z,9.52
2022-12-13T11:25:42.619Z,8.80
2022-12-13T11:33:27.962Z,7.63
2022-12-13T11:41:11.392Z,8.55
2022-12-13T11:48:52.609Z,7.27
2022-12-13T11:56:32.106Z,8.13
2022-12-13T12:04:16.075Z,7.43
2022-12-13T12:12:00.205Z,7.63
2022-12-13T12:19:40.313Z,8.43
2022-12-13T12:27:32.842Z,8.90
2022-12-13T12:35:24.106Z,8.15
2022-12-13T12:43:27.006Z,7.30
2022-12-13T12:51:07.137Z,7.85
2022-12-13T12:58:51.956Z,6.97
2022-12-13T13:06:30.205Z,11.65
2022-12-13T13:14:08.341Z,7.53
2022-12-13T13:21:48.399Z,7.63
2022-12-13T13:29:35.603Z,7.25
2022-12-13T13:37:28.828Z,7.25
2022-12-13T13:45:27.242Z,7.28
2022-12-13T13:53:25.086Z,7.05
2022-12-13T14:01:41.503Z,8.15
2022-12-13T14:09:48.301Z,8.45
2022-12-13T14:17:59.345Z,9.32
2022-12-13T14:25:52.695Z,8.65
2022-12-13T14:41:05.912Z,9.30
2022-12-13T14:48:47.054Z,9.38
2022-12-13T14:56:27.712Z,11.07
2022-12-13T15:04:20.438Z,9.88
2022-12-13T15:12:01.384Z,10.80
2022-12-13T15:19:48.991Z,9.70
2022-12-13T15:27:25.566Z,10.77
2022-12-13T15:35:16.762Z,11.52
2022-12-13T15:42:52.919Z,9.73
2022-12-13T15:50:33.413Z,12.05
2022-12-13T15:58:26.886Z,12.38
2022-12-13T16:06:02.567Z,12.35
2022-12-13T16:13:39.955Z,14.07
2022-12-13T16:21:21.299Z,14.07
2022-12-13T16:28:59.853Z,14.45
2022-12-13T16:36:34.312Z,14.80
2022-12-13T16:44:11.989Z,14.15
2022-12-13T16:51:48.635Z,13.40
2022-12-13T16:59:25.874Z,14.30
2022-12-13T17:06:59.679Z,13.82
2022-12-13T17:14:34.874Z,13.45
2022-12-13T17:22:09.067Z,15.38
2022-12-13T17:29:45.584Z,14.57
2022-12-13T17:37:19.613Z,13.52
2022-12-13T17:44:54.926Z,13.88
2022-12-13T17:52:28.775Z,14.38
2022-12-13T18:07:38.338Z,15.50
2022-12-13T18:22:51.312Z,13.30
2022-12-13T18:30:28.218Z,15.00
2022-12-13T18:38:02.315Z,13.85
2022-12-13T18:45:37.915Z,13.85
2022-12-13T18:53:11.795Z,14.70
2022-12-13T19:00:47.088Z,13.63
2022-12-13T19:08:26.121Z,14.52
2022-12-13T19:16:07.499Z,15.07
2022-12-13T19:23:41.440Z,16.00
2022-12-13T19:31:17.837Z,14.95
2022-12-13T19:38:51.670Z,16.17
2022-12-13T19:46:27.435Z,16.92
2022-12-13T19:54:01.884Z,15.07
2022-12-13T20:01:37.332Z,16.70
2022-12-13T20:09:11.230Z,17.27
2022-12-13T20:16:46.528Z,18.05
2022-12-13T20:24:20.452Z,17.17
2022-12-13T20:31:56.128Z,16.92
2022-12-13T20:39:29.959Z,14.32
2022-12-13T20:47:05.180Z,24.92
2022-12-13T20:54:39.009Z,23.95
2022-12-13T21:02:14.810Z,17.67
2022-12-13T21:09:48.758Z,15.02
2022-12-13T21:17:23.972Z,13.90
2022-12-13T21:24:57.856Z,15.02
2022-12-13T21:32:34.657Z,14.85
2022-12-13T21:40:09.788Z,12.70
2022-12-13T21:47:45.042Z,13.07
2022-12-13T22:03:14.378Z,13.50
2022-12-13T22:11:02.205Z,14.50
2022-12-13T22:18:37.726Z,13.23
2022-12-13T22:26:11.525Z,14.40
2022-12-13T22:33:47.331Z,15.02
2022-12-13T22:41:21.618Z,14.02
2022-12-13T22:48:56.762Z,14.68
2022-12-13T22:56:31.110Z,14.32
2022-12-13T23:04:07.062Z,12.80
2022-12-13T23:11:58.241Z,13.07
2022-12-13T23:19:50.784Z,12.55
2022-12-13T23:27:25.807Z,13.97
2022-12-13T23:35:02.261Z,14.98
2022-12-13T23:42:36.032Z,15.05
2022-12-13T23:50:11.852Z,14.38
2022-12-13T23:57:45.642Z,13.85
